Insula Oya 2 — FUKI — position and weather

sailwx.info

Track history (hours):
 
Tides and Currents Weather Stations Pressure Air Temp Water Temp Dewpoint Dewpoint Depression Visibility Wind Speed Wind Dir Waves Ship Positions

Insula Oya 2

Last reported at 2018-Jan-20 06:55 UTC. Time now 2018-Jan-20 15:12 UTC.
Position N 46°48' W 002°16'.

Length 50 m; draft 2.4 m.

Type: Passenger vessel. MMSI: 227004900.

Date/timePositionNaut miles runAvg speedWind from/ knotsBaromVisibWave heightAir tempDewpointWater temp
2018-Jan-20 06:55N 46°48' W 002°16'612.8
2018-Jan-20 06:28N 46°53' W 002°12'2 5.1
2018-Jan-20 06:00N 46°54' W 002°08'0 0.0
2018-Jan-20 05:30N 46°54' W 002°08'0 0.0
2018-Jan-20 05:00N 46°54' W 002°08'0 0.0
2018-Jan-20 04:30N 46°54' W 002°08'0 0.0
2018-Jan-20 04:00N 46°54' W 002°08'0 0.0
2018-Jan-20 03:30N 46°54' W 002°08'0 0.0
2018-Jan-20 03:00N 46°54' W 002°08'0 0.0
2018-Jan-20 02:30N 46°54' W 002°08'0 0.0
2018-Jan-20 02:00N 46°54' W 002°08'0 0.0
2018-Jan-20 01:30N 46°54' W 002°08'0 0.0
2018-Jan-20 01:00N 46°54' W 002°08'0 0.0
2018-Jan-20 00:30N 46°54' W 002°08'0 0.0
2018-Jan-20 00:00N 46°54' W 002°08'0 0.0
2018-Jan-19 23:30N 46°54' W 002°08'0 0.0
2018-Jan-19 23:00N 46°54' W 002°08'0 0.0
2018-Jan-19 22:30N 46°54' W 002°08'0 0.0
2018-Jan-19 22:00N 46°54' W 002°08'0 0.0
2018-Jan-19 21:30N 46°54' W 002°08'0 0.0
2018-Jan-19 21:00N 46°54' W 002°08'0 0.0
2018-Jan-19 20:30N 46°54' W 002°08'0 0.0
2018-Jan-19 20:00N 46°54' W 002°08'0 0.0
2018-Jan-19 19:30N 46°54' W 002°08'0 0.0
2018-Jan-19 19:00N 46°54' W 002°08'0 0.0
2018-Jan-19 18:30N 46°54' W 002°08'0 0.0
2018-Jan-19 18:00N 46°54' W 002°08'0 0.0
2018-Jan-19 17:30N 46°54' W 002°08'0 0.0
2018-Jan-19 17:00N 46°54' W 002°08'0 0.0
2018-Jan-19 16:30N 46°54' W 002°08'0 0.0
2018-Jan-19 16:00N 46°54' W 002°08'4 7.8
2018-Jan-19 15:29N 46°51' W 002°13'2 0.2
2018-Jan-19 06:37N 46°50' W 002°15'213.9
2018-Jan-19 06:29N 46°51' W 002°13'4 8.2
2018-Jan-19 06:00N 46°54' W 002°08'0 0.0
2018-Jan-19 05:30N 46°54' W 002°08'0 0.0
2018-Jan-19 05:00N 46°54' W 002°08'0 0.0
2018-Jan-19 04:30N 46°54' W 002°08'0 0.0
2018-Jan-19 04:00N 46°54' W 002°08'0 0.0
2018-Jan-19 03:30N 46°54' W 002°08'0 0.0
2018-Jan-19 03:00N 46°54' W 002°08'0 0.0
2018-Jan-19 02:30N 46°54' W 002°08'0 0.0
2018-Jan-19 02:00N 46°54' W 002°08'0 0.0
2018-Jan-19 01:30N 46°54' W 002°08'0 0.0
2018-Jan-19 01:00N 46°54' W 002°08'0 0.0
2018-Jan-19 00:30N 46°54' W 002°08'0 0.0
2018-Jan-19 00:00N 46°54' W 002°08'0 0.0
2018-Jan-18 23:30N 46°54' W 002°08'0 0.0
2018-Jan-18 23:00N 46°54' W 002°08'0 0.0
2018-Jan-18 22:30N 46°54' W 002°08'0 0.0
2018-Jan-18 22:00N 46°54' W 002°08'0 0.0
2018-Jan-18 21:30N 46°54' W 002°08'0 0.0
2018-Jan-18 21:00N 46°54' W 002°08'0 0.0
2018-Jan-18 20:30N 46°54' W 002°08'0 0.0
2018-Jan-18 20:00N 46°54' W 002°08'0 0.0
2018-Jan-18 19:30N 46°54' W 002°08'0 0.0
2018-Jan-18 19:00N 46°54' W 002°08'0 0.0
2018-Jan-18 18:30N 46°54' W 002°08'0 0.0
2018-Jan-18 18:00N 46°54' W 002°08'0 0.0
2018-Jan-18 17:30N 46°54' W 002°08'0 0.0
2018-Jan-18 17:00N 46°54' W 002°08'0 0.0
2018-Jan-18 16:30N 46°54' W 002°08'0 0.0
2018-Jan-18 16:00N 46°54' W 002°08'0 0.0
2018-Jan-18 15:30N 46°54' W 002°08'1 2.7
2018-Jan-18 15:00N 46°54' W 002°10'0 0.0
2018-Jan-18 05:43N 46°54' W 002°11'2 7.7
2018-Jan-18 05:30N 46°54' W 002°08'0 0.0
2018-Jan-18 05:00N 46°54' W 002°08'0 0.0
2018-Jan-18 04:30N 46°54' W 002°08'0 0.0
2018-Jan-18 04:00N 46°54' W 002°08'0 0.0
2018-Jan-18 03:30N 46°54' W 002°08'0 0.0
2018-Jan-18 03:00N 46°54' W 002°08'0 0.0
2018-Jan-18 02:30N 46°54' W 002°08'0 0.0
2018-Jan-18 02:00N 46°54' W 002°08'0 0.0
2018-Jan-18 01:30N 46°54' W 002°08'0 0.0
2018-Jan-18 01:00N 46°54' W 002°08'0 0.0
2018-Jan-18 00:00N 46°54' W 002°08'0 0.0
2018-Jan-17 23:57N 46°54' W 002°08'  
2018-Jan-12 14:58N 46°54' W 002°08'4 8.3
2018-Jan-12 14:29N 46°51' W 002°13'3 1.0
2018-Jan-12 11:12N 46°49' W 002°16'313.5
2018-Jan-12 11:00N 46°51' W 002°14'5 9.2
2018-Jan-12 10:31N 46°54' W 002°08'0 0.0
2018-Jan-12 10:01N 46°54' W 002°08'0 0.0
2018-Jan-12 09:28N 46°54' W 002°08'0 0.0
2018-Jan-12 08:58N 46°54' W 002°08'0 0.0
2018-Jan-12 08:28N 46°54' W 002°08'0 0.0
2018-Jan-12 07:58N 46°54' W 002°08'0 0.0
2018-Jan-12 07:28N 46°54' W 002°08'0 0.0
2018-Jan-12 06:58N 46°54' W 002°08'0 0.0
2018-Jan-12 06:28N 46°54' W 002°08'0 0.0
2018-Jan-12 05:58N 46°54' W 002°08'0 0.0
2018-Jan-12 05:28N 46°54' W 002°08'0 0.0
2018-Jan-12 04:52N 46°54' W 002°08'0 0.0
2018-Jan-12 04:07N 46°54' W 002°08'0 0.0
2018-Jan-12 03:55N 46°54' W 002°08'0 0.0
2018-Jan-12 03:28N 46°54' W 002°08'0 0.0
2018-Jan-12 02:49N 46°54' W 002°08'0 0.0
2018-Jan-12 02:28N 46°54' W 002°08'0 0.0
2018-Jan-12 01:58N 46°54' W 002°08'0 0.0
2018-Jan-12 01:25N 46°54' W 002°08'0 0.0
2018-Jan-12 00:58N 46°54' W 002°08'0 0.0
2018-Jan-12 00:28N 46°54' W 002°08'0 0.0
2018-Jan-11 23:55N 46°54' W 002°08'0 0.0
2018-Jan-11 23:22N 46°54' W 002°08'0 0.0
2018-Jan-11 22:52N 46°54' W 002°08'0 0.0
2018-Jan-11 22:25N 46°54' W 002°08'0 0.0
2018-Jan-11 21:46N 46°54' W 002°08'0 0.0
2018-Jan-11 21:28N 46°54' W 002°08'0 0.0
2018-Jan-11 20:58N 46°54' W 002°08'0 0.0
2018-Jan-11 20:25N 46°54' W 002°08'0 0.0
2018-Jan-11 19:46N 46°54' W 002°08'0 0.0
2018-Jan-11 19:22N 46°54' W 002°08'0 0.0
2018-Jan-11 18:58N 46°54' W 002°08'0 0.0
2018-Jan-11 18:25N 46°54' W 002°08'0 0.0
2018-Jan-11 17:22N 46°54' W 002°08'0 0.0
2018-Jan-11 16:37N 46°54' W 002°08'0 0.0
2018-Jan-11 16:07N 46°54' W 002°08'0 0.0
2018-Jan-11 15:58N 46°54' W 002°08'0 0.0
2018-Jan-11 15:22N 46°54' W 002°08'0 0.0
2018-Jan-11 14:58N 46°54' W 002°08'0 0.1
2018-Jan-11 13:54N 46°54' W 002°09'3 0.7
2018-Jan-11 09:37N 46°52' W 002°13'212.4
2018-Jan-11 09:30N 46°53' W 002°11'2 1.3
2018-Jan-11 07:56N 46°54' W 002°08'0 0.0
2018-Jan-11 07:26N 46°54' W 002°08'0 0.0
2018-Jan-11 06:56N 46°54' W 002°08'0 0.0
2018-Jan-11 06:29N 46°54' W 002°08'0 0.0
2018-Jan-11 04:38N 46°54' W 002°08'0 0.0
2018-Jan-11 04:26N 46°54' W 002°08'0 0.0
2018-Jan-11 03:59N 46°54' W 002°08'0 0.0
2018-Jan-11 03:08N 46°54' W 002°08'0 0.0
2018-Jan-11 02:50N 46°54' W 002°08'0 0.0
2018-Jan-11 02:29N 46°54' W 002°08'0 0.0
2018-Jan-11 01:56N 46°54' W 002°08'0 0.0
2018-Jan-11 01:23N 46°54' W 002°08'0 0.0
2018-Jan-11 00:56N 46°54' W 002°08'0 0.0
2018-Jan-11 00:20N 46°54' W 002°08'0 0.0
2018-Jan-10 23:59N 46°54' W 002°08'0 0.0
2018-Jan-10 23:26N 46°54' W 002°08'0 0.0
2018-Jan-10 21:59N 46°54' W 002°08'0 0.0
2018-Jan-10 21:17N 46°54' W 002°08'0 0.0
2018-Jan-10 20:53N 46°54' W 002°08'0 0.0
2018-Jan-10 20:29N 46°54' W 002°08'0 0.0
2018-Jan-10 19:47N 46°54' W 002°08'0 0.0
2018-Jan-10 19:26N 46°54' W 002°08'0 0.0
2018-Jan-10 18:59N 46°54' W 002°08'0 0.0
2018-Jan-10 18:29N 46°54' W 002°08'0 0.0
2018-Jan-10 17:59N 46°54' W 002°08'0 0.0
2018-Jan-10 17:29N 46°54' W 002°08'0 0.0
2018-Jan-10 16:59N 46°54' W 002°08'0 0.0
2018-Jan-10 16:29N 46°54' W 002°08'0 0.0
2018-Jan-10 15:59N 46°54' W 002°08'0 0.0
2018-Jan-10 15:29N 46°54' W 002°08'0 0.0
2018-Jan-10 14:53N 46°54' W 002°08'0 0.0
2018-Jan-10 14:29N 46°54' W 002°08'0 0.0
2018-Jan-10 13:53N 46°54' W 002°08'0 0.0
2018-Jan-10 13:23N 46°54' W 002°08'0 0.0
2018-Jan-10 12:59N 46°54' W 002°08'4 8.4
2018-Jan-10 12:31N 46°52' W 002°13'7 2.0
2018-Jan-10 09:08N 46°46' W 002°18'613.5
2018-Jan-10 08:40N 46°51' W 002°13'213.2
2018-Jan-10 08:30N 46°53' W 002°12'2 4.3
2018-Jan-10 07:58N 46°54' W 002°08'0 0.0
2018-Jan-10 07:28N 46°54' W 002°08'0 0.0
2018-Jan-10 06:58N 46°54' W 002°08'  
Track history (hours):
 
Tides and Currents Weather Stations Pressure Air Temp Water Temp Dewpoint Dewpoint Depression Visibility Wind Speed Wind Dir Waves Ship Positions

Insula Oya 2

Last reported at 2018-Jan-20 06:55 UTC. Time now 2018-Jan-20 15:12 UTC.
Position N 46°48' W 002°16'.

Length 50 m; draft 2.4 m.

Type: Passenger vessel. MMSI: 227004900.

Date/timePositionNaut miles runAvg speedWind from/ knotsBaromVisibWave heightAir tempDewpointWater temp
2018-Jan-20 06:55N 46°48' W 002°16'612.8
2018-Jan-20 06:28N 46°53' W 002°12'2 5.1
2018-Jan-20 06:00N 46°54' W 002°08'0 0.0
2018-Jan-20 05:30N 46°54' W 002°08'0 0.0
2018-Jan-20 05:00N 46°54' W 002°08'0 0.0
2018-Jan-20 04:30N 46°54' W 002°08'0 0.0
2018-Jan-20 04:00N 46°54' W 002°08'0 0.0
2018-Jan-20 03:30N 46°54' W 002°08'0 0.0
2018-Jan-20 03:00N 46°54' W 002°08'0 0.0
2018-Jan-20 02:30N 46°54' W 002°08'0 0.0
2018-Jan-20 02:00N 46°54' W 002°08'0 0.0
2018-Jan-20 01:30N 46°54' W 002°08'0 0.0
2018-Jan-20 01:00N 46°54' W 002°08'0 0.0
2018-Jan-20 00:30N 46°54' W 002°08'0 0.0
2018-Jan-20 00:00N 46°54' W 002°08'0 0.0
2018-Jan-19 23:30N 46°54' W 002°08'0 0.0
2018-Jan-19 23:00N 46°54' W 002°08'0 0.0
2018-Jan-19 22:30N 46°54' W 002°08'0 0.0
2018-Jan-19 22:00N 46°54' W 002°08'0 0.0
2018-Jan-19 21:30N 46°54' W 002°08'0 0.0
2018-Jan-19 21:00N 46°54' W 002°08'0 0.0
2018-Jan-19 20:30N 46°54' W 002°08'0 0.0
2018-Jan-19 20:00N 46°54' W 002°08'0 0.0
2018-Jan-19 19:30N 46°54' W 002°08'0 0.0
2018-Jan-19 19:00N 46°54' W 002°08'0 0.0
2018-Jan-19 18:30N 46°54' W 002°08'0 0.0
2018-Jan-19 18:00N 46°54' W 002°08'0 0.0
2018-Jan-19 17:30N 46°54' W 002°08'0 0.0
2018-Jan-19 17:00N 46°54' W 002°08'0 0.0
2018-Jan-19 16:30N 46°54' W 002°08'0 0.0
2018-Jan-19 16:00N 46°54' W 002°08'4 7.8
2018-Jan-19 15:29N 46°51' W 002°13'2 0.2
2018-Jan-19 06:37N 46°50' W 002°15'213.9
2018-Jan-19 06:29N 46°51' W 002°13'4 8.2
2018-Jan-19 06:00N 46°54' W 002°08'0 0.0
2018-Jan-19 05:30N 46°54' W 002°08'0 0.0
2018-Jan-19 05:00N 46°54' W 002°08'0 0.0
2018-Jan-19 04:30N 46°54' W 002°08'0 0.0
2018-Jan-19 04:00N 46°54' W 002°08'0 0.0
2018-Jan-19 03:30N 46°54' W 002°08'0 0.0
2018-Jan-19 03:00N 46°54' W 002°08'0 0.0
2018-Jan-19 02:30N 46°54' W 002°08'0 0.0
2018-Jan-19 02:00N 46°54' W 002°08'0 0.0
2018-Jan-19 01:30N 46°54' W 002°08'0 0.0
2018-Jan-19 01:00N 46°54' W 002°08'0 0.0
2018-Jan-19 00:30N 46°54' W 002°08'0 0.0
2018-Jan-19 00:00N 46°54' W 002°08'0 0.0
2018-Jan-18 23:30N 46°54' W 002°08'0 0.0
2018-Jan-18 23:00N 46°54' W 002°08'0 0.0
2018-Jan-18 22:30N 46°54' W 002°08'0 0.0
2018-Jan-18 22:00N 46°54' W 002°08'0 0.0
2018-Jan-18 21:30N 46°54' W 002°08'0 0.0
2018-Jan-18 21:00N 46°54' W 002°08'0 0.0
2018-Jan-18 20:30N 46°54' W 002°08'0 0.0
2018-Jan-18 20:00N 46°54' W 002°08'0 0.0
2018-Jan-18 19:30N 46°54' W 002°08'0 0.0
2018-Jan-18 19:00N 46°54' W 002°08'0 0.0
2018-Jan-18 18:30N 46°54' W 002°08'0 0.0
2018-Jan-18 18:00N 46°54' W 002°08'0 0.0
2018-Jan-18 17:30N 46°54' W 002°08'0 0.0
2018-Jan-18 17:00N 46°54' W 002°08'0 0.0
2018-Jan-18 16:30N 46°54' W 002°08'0 0.0
2018-Jan-18 16:00N 46°54' W 002°08'0 0.0
2018-Jan-18 15:30N 46°54' W 002°08'1 2.7
2018-Jan-18 15:00N 46°54' W 002°10'0 0.0
2018-Jan-18 05:43N 46°54' W 002°11'2 7.7
2018-Jan-18 05:30N 46°54' W 002°08'0 0.0
2018-Jan-18 05:00N 46°54' W 002°08'0 0.0
2018-Jan-18 04:30N 46°54' W 002°08'0 0.0
2018-Jan-18 04:00N 46°54' W 002°08'0 0.0
2018-Jan-18 03:30N 46°54' W 002°08'0 0.0
2018-Jan-18 03:00N 46°54' W 002°08'0 0.0
2018-Jan-18 02:30N 46°54' W 002°08'0 0.0
2018-Jan-18 02:00N 46°54' W 002°08'0 0.0
2018-Jan-18 01:30N 46°54' W 002°08'0 0.0
2018-Jan-18 01:00N 46°54' W 002°08'0 0.0
2018-Jan-18 00:00N 46°54' W 002°08'0 0.0
2018-Jan-17 23:57N 46°54' W 002°08'  
2018-Jan-12 14:58N 46°54' W 002°08'4 8.3
2018-Jan-12 14:29N 46°51' W 002°13'3 1.0
2018-Jan-12 11:12N 46°49' W 002°16'313.5
2018-Jan-12 11:00N 46°51' W 002°14'5 9.2
2018-Jan-12 10:31N 46°54' W 002°08'0 0.0
2018-Jan-12 10:01N 46°54' W 002°08'0 0.0
2018-Jan-12 09:28N 46°54' W 002°08'0 0.0
2018-Jan-12 08:58N 46°54' W 002°08'0 0.0
2018-Jan-12 08:28N 46°54' W 002°08'0 0.0
2018-Jan-12 07:58N 46°54' W 002°08'0 0.0
2018-Jan-12 07:28N 46°54' W 002°08'0 0.0
2018-Jan-12 06:58N 46°54' W 002°08'0 0.0
2018-Jan-12 06:28N 46°54' W 002°08'0 0.0
2018-Jan-12 05:58N 46°54' W 002°08'0 0.0
2018-Jan-12 05:28N 46°54' W 002°08'0 0.0
2018-Jan-12 04:52N 46°54' W 002°08'0 0.0
2018-Jan-12 04:07N 46°54' W 002°08'0 0.0
2018-Jan-12 03:55N 46°54' W 002°08'0 0.0
2018-Jan-12 03:28N 46°54' W 002°08'0 0.0
2018-Jan-12 02:49N 46°54' W 002°08'0 0.0
2018-Jan-12 02:28N 46°54' W 002°08'0 0.0
2018-Jan-12 01:58N 46°54' W 002°08'0 0.0
2018-Jan-12 01:25N 46°54' W 002°08'0 0.0
2018-Jan-12 00:58N 46°54' W 002°08'0 0.0
2018-Jan-12 00:28N 46°54' W 002°08'0 0.0
2018-Jan-11 23:55N 46°54' W 002°08'0 0.0
2018-Jan-11 23:22N 46°54' W 002°08'0 0.0
2018-Jan-11 22:52N 46°54' W 002°08'0 0.0
2018-Jan-11 22:25N 46°54' W 002°08'0 0.0
2018-Jan-11 21:46N 46°54' W 002°08'0 0.0
2018-Jan-11 21:28N 46°54' W 002°08'0 0.0
2018-Jan-11 20:58N 46°54' W 002°08'0 0.0
2018-Jan-11 20:25N 46°54' W 002°08'0 0.0
2018-Jan-11 19:46N 46°54' W 002°08'0 0.0
2018-Jan-11 19:22N 46°54' W 002°08'0 0.0
2018-Jan-11 18:58N 46°54' W 002°08'0 0.0
2018-Jan-11 18:25N 46°54' W 002°08'0 0.0
2018-Jan-11 17:22N 46°54' W 002°08'0 0.0
2018-Jan-11 16:37N 46°54' W 002°08'0 0.0
2018-Jan-11 16:07N 46°54' W 002°08'0 0.0
2018-Jan-11 15:58N 46°54' W 002°08'0 0.0
2018-Jan-11 15:22N 46°54' W 002°08'0 0.0
2018-Jan-11 14:58N 46°54' W 002°08'0 0.1
2018-Jan-11 13:54N 46°54' W 002°09'3 0.7
2018-Jan-11 09:37N 46°52' W 002°13'212.4
2018-Jan-11 09:30N 46°53' W 002°11'2 1.3
2018-Jan-11 07:56N 46°54' W 002°08'0 0.0
2018-Jan-11 07:26N 46°54' W 002°08'0 0.0
2018-Jan-11 06:56N 46°54' W 002°08'0 0.0
2018-Jan-11 06:29N 46°54' W 002°08'0 0.0
2018-Jan-11 04:38N 46°54' W 002°08'0 0.0
2018-Jan-11 04:26N 46°54' W 002°08'0 0.0
2018-Jan-11 03:59N 46°54' W 002°08'0 0.0
2018-Jan-11 03:08N 46°54' W 002°08'0 0.0
2018-Jan-11 02:50N 46°54' W 002°08'0 0.0
2018-Jan-11 02:29N 46°54' W 002°08'0 0.0
2018-Jan-11 01:56N 46°54' W 002°08'0 0.0
2018-Jan-11 01:23N 46°54' W 002°08'0 0.0
2018-Jan-11 00:56N 46°54' W 002°08'0 0.0
2018-Jan-11 00:20N 46°54' W 002°08'0 0.0
2018-Jan-10 23:59N 46°54' W 002°08'0 0.0
2018-Jan-10 23:26N 46°54' W 002°08'0 0.0
2018-Jan-10 21:59N 46°54' W 002°08'0 0.0
2018-Jan-10 21:17N 46°54' W 002°08'0 0.0
2018-Jan-10 20:53N 46°54' W 002°08'0 0.0
2018-Jan-10 20:29N 46°54' W 002°08'0 0.0
2018-Jan-10 19:47N 46°54' W 002°08'0 0.0
2018-Jan-10 19:26N 46°54' W 002°08'0 0.0
2018-Jan-10 18:59N 46°54' W 002°08'0 0.0
2018-Jan-10 18:29N 46°54' W 002°08'0 0.0
2018-Jan-10 17:59N 46°54' W 002°08'0 0.0
2018-Jan-10 17:29N 46°54' W 002°08'0 0.0
2018-Jan-10 16:59N 46°54' W 002°08'0 0.0
2018-Jan-10 16:29N 46°54' W 002°08'0 0.0
2018-Jan-10 15:59N 46°54' W 002°08'0 0.0
2018-Jan-10 15:29N 46°54' W 002°08'0 0.0
2018-Jan-10 14:53N 46°54' W 002°08'0 0.0
2018-Jan-10 14:29N 46°54' W 002°08'0 0.0
2018-Jan-10 13:53N 46°54' W 002°08'0 0.0
2018-Jan-10 13:23N 46°54' W 002°08'0 0.0
2018-Jan-10 12:59N 46°54' W 002°08'4 8.4
2018-Jan-10 12:31N 46°52' W 002°13'7 2.0
2018-Jan-10 09:08N 46°46' W 002°18'613.5
2018-Jan-10 08:40N 46°51' W 002°13'213.2
2018-Jan-10 08:30N 46°53' W 002°12'2 4.3
2018-Jan-10 07:58N 46°54' W 002°08'0 0.0
2018-Jan-10 07:28N 46°54' W 002°08'0 0.0
2018-Jan-10 06:58N 46°54' W 002°08'  

Dump ship's entire track history